sensor_id;sensor_type;location;lat;lon;timestamp;temperature;humidity
17296;DHT22;8766;51.480;6.872;2022-10-22T00:00:03;15.10;74.90
17296;DHT22;8766;51.480;6.872;2022-10-22T00:02:30;15.20;74.90
17296;DHT22;8766;51.480;6.872;2022-10-22T00:04:57;15.20;74.70
17296;DHT22;8766;51.480;6.872;2022-10-22T00:07:24;15.20;74.70
17296;DHT22;8766;51.480;6.872;2022-10-22T00:09:52;15.20;74.60
17296;DHT22;8766;51.480;6.872;2022-10-22T00:12:19;15.20;74.60
17296;DHT22;8766;51.480;6.872;2022-10-22T00:14:47;15.30;74.50
17296;DHT22;8766;51.480;6.872;2022-10-22T00:17:14;15.30;74.50
17296;DHT22;8766;51.480;6.872;2022-10-22T00:19:41;15.30;74.50
17296;DHT22;8766;51.480;6.872;2022-10-22T00:22:09;15.20;74.50
17296;DHT22;8766;51.480;6.872;2022-10-22T00:24:36;15.30;74.60
17296;DHT22;8766;51.480;6.872;2022-10-22T00:27:06;15.20;74.50
17296;DHT22;8766;51.480;6.872;2022-10-22T00:29:33;15.20;74.60
17296;DHT22;8766;51.480;6.872;2022-10-22T00:32:00;15.20;74.60
17296;DHT22;8766;51.480;6.872;2022-10-22T00:34:27;15.20;74.60
17296;DHT22;8766;51.480;6.872;2022-10-22T00:36:54;15.20;74.60
17296;DHT22;8766;51.480;6.872;2022-10-22T00:39:23;15.20;74.70
17296;DHT22;8766;51.480;6.872;2022-10-22T00:41:52;15.20;74.70
17296;DHT22;8766;51.480;6.872;2022-10-22T00:47:29;15.10;74.70
17296;DHT22;8766;51.480;6.872;2022-10-22T00:49:57;15.10;74.70
17296;DHT22;8766;51.480;6.872;2022-10-22T00:52:26;15.10;74.70
17296;DHT22;8766;51.480;6.872;2022-10-22T00:54:54;15.10;74.60
17296;DHT22;8766;51.480;6.872;2022-10-22T00:57:21;15.10;74.60
17296;DHT22;8766;51.480;6.872;2022-10-22T00:59:48;15.10;74.60
17296;DHT22;8766;51.480;6.872;2022-10-22T01:02:15;15.10;74.60
17296;DHT22;8766;51.480;6.872;2022-10-22T01:04:44;15.10;74.60
17296;DHT22;8766;51.480;6.872;2022-10-22T01:07:15;15.20;74.60
17296;DHT22;8766;51.480;6.872;2022-10-22T01:09:48;15.20;74.60
17296;DHT22;8766;51.480;6.872;2022-10-22T01:12:22;15.20;74.60
17296;DHT22;8766;51.480;6.872;2022-10-22T01:15:00;15.20;74.60
17296;DHT22;8766;51.480;6.872;2022-10-22T01:17:33;15.20;74.60
17296;DHT22;8766;51.480;6.872;2022-10-22T01:20:11;15.20;74.60
17296;DHT22;8766;51.480;6.872;2022-10-22T01:22:48;15.20;74.60
17296;DHT22;8766;51.480;6.872;2022-10-22T01:25:26;15.20;74.50
17296;DHT22;8766;51.480;6.872;2022-10-22T01:28:06;15.20;74.60
17296;DHT22;8766;51.480;6.872;2022-10-22T01:30:37;15.20;74.50
17296;DHT22;8766;51.480;6.872;2022-10-22T01:33:07;15.20;74.60
17296;DHT22;8766;51.480;6.872;2022-10-22T01:35:37;15.20;74.60
17296;DHT22;8766;51.480;6.872;2022-10-22T01:38:09;15.20;74.60
17296;DHT22;8766;51.480;6.872;2022-10-22T01:40:36;15.20;74.60
17296;DHT22;8766;51.480;6.872;2022-10-22T01:43:05;15.20;74.50
17296;DHT22;8766;51.480;6.872;2022-10-22T01:45:35;15.20;74.50
17296;DHT22;8766;51.480;6.872;2022-10-22T01:48:14;15.20;74.50
17296;DHT22;8766;51.480;6.872;2022-10-22T01:51:00;15.10;74.50
17296;DHT22;8766;51.480;6.872;2022-10-22T01:53:36;15.10;74.50
17296;DHT22;8766;51.480;6.872;2022-10-22T01:56:15;15.10;74.50
17296;DHT22;8766;51.480;6.872;2022-10-22T01:58:51;15.10;74.60
17296;DHT22;8766;51.480;6.872;2022-10-22T02:01:25;15.10;74.60
17296;DHT22;8766;51.480;6.872;2022-10-22T02:03:59;15.10;74.60
17296;DHT22;8766;51.480;6.872;2022-10-22T02:06:28;15.10;74.60
17296;DHT22;8766;51.480;6.872;2022-10-22T02:08:57;15.10;74.60
17296;DHT22;8766;51.480;6.872;2022-10-22T02:11:25;15.10;74.70
17296;DHT22;8766;51.480;6.872;2022-10-22T02:13:57;15.00;74.60
17296;DHT22;8766;51.480;6.872;2022-10-22T02:16:29;15.00;74.60
17296;DHT22;8766;51.480;6.872;2022-10-22T02:19:01;15.00;74.70
17296;DHT22;8766;51.480;6.872;2022-10-22T02:21:29;15.00;74.70
17296;DHT22;8766;51.480;6.872;2022-10-22T02:23:56;15.00;74.70
17296;DHT22;8766;51.480;6.872;2022-10-22T02:26:28;15.00;74.80
17296;DHT22;8766;51.480;6.872;2022-10-22T02:29:01;15.00;74.80
17296;DHT22;8766;51.480;6.872;2022-10-22T02:31:31;15.00;74.80
17296;DHT22;8766;51.480;6.872;2022-10-22T02:34:04;15.00;74.80
17296;DHT22;8766;51.480;6.872;2022-10-22T02:36:34;15.00;74.80
17296;DHT22;8766;51.480;6.872;2022-10-22T02:39:01;15.00;74.70
17296;DHT22;8766;51.480;6.872;2022-10-22T02:41:28;15.00;74.70
17296;DHT22;8766;51.480;6.872;2022-10-22T02:43:56;15.00;74.60
17296;DHT22;8766;51.480;6.872;2022-10-22T02:46:23;15.10;74.50
17296;DHT22;8766;51.480;6.872;2022-10-22T02:48:51;15.10;74.40
17296;DHT22;8766;51.480;6.872;2022-10-22T02:51:19;15.20;74.40
17296;DHT22;8766;51.480;6.872;2022-10-22T02:53:46;15.20;74.30
17296;DHT22;8766;51.480;6.872;2022-10-22T02:56:13;15.20;74.30
17296;DHT22;8766;51.480;6.872;2022-10-22T02:58:40;15.20;74.30
17296;DHT22;8766;51.480;6.872;2022-10-22T03:01:07;15.20;74.40
17296;DHT22;8766;51.480;6.872;2022-10-22T03:03:33;15.10;74.40
17296;DHT22;8766;51.480;6.872;2022-10-22T03:06:00;15.10;74.40
17296;DHT22;8766;51.480;6.872;2022-10-22T03:08:29;15.10;74.50
17296;DHT22;8766;51.480;6.872;2022-10-22T03:10:55;15.00;74.60
17296;DHT22;8766;51.480;6.872;2022-10-22T03:13:22;15.00;74.60
17296;DHT22;8766;51.480;6.872;2022-10-22T03:15:49;15.00;74.70
17296;DHT22;8766;51.480;6.872;2022-10-22T03:18:16;15.00;74.80
17296;DHT22;8766;51.480;6.872;2022-10-22T03:20:43;15.00;74.90
17296;DHT22;8766;51.480;6.872;2022-10-22T03:23:11;14.90;74.80
17296;DHT22;8766;51.480;6.872;2022-10-22T03:25:41;14.90;74.80
17296;DHT22;8766;51.480;6.872;2022-10-22T03:28:10;14.90;74.90
17296;DHT22;8766;51.480;6.872;2022-10-22T03:30:39;14.90;74.80
17296;DHT22;8766;51.480;6.872;2022-10-22T03:33:06;14.90;74.80
17296;DHT22;8766;51.480;6.872;2022-10-22T03:35:37;14.90;74.80
17296;DHT22;8766;51.480;6.872;2022-10-22T03:38:06;14.90;74.80
17296;DHT22;8766;51.480;6.872;2022-10-22T03:40:33;14.90;74.80
17296;DHT22;8766;51.480;6.872;2022-10-22T03:43:01;14.90;74.80
17296;DHT22;8766;51.480;6.872;2022-10-22T03:45:28;14.90;74.80
17296;DHT22;8766;51.480;6.872;2022-10-22T03:47:55;14.90;74.80
17296;DHT22;8766;51.480;6.872;2022-10-22T03:50:22;14.90;74.80
17296;DHT22;8766;51.480;6.872;2022-10-22T03:52:49;14.90;74.80
17296;DHT22;8766;51.480;6.872;2022-10-22T03:55:17;14.90;74.80
17296;DHT22;8766;51.480;6.872;2022-10-22T03:57:44;14.90;74.90
17296;DHT22;8766;51.480;6.872;2022-10-22T04:00:13;14.90;74.90
17296;DHT22;8766;51.480;6.872;2022-10-22T04:02:40;14.90;74.90
17296;DHT22;8766;51.480;6.872;2022-10-22T04:05:07;14.90;74.90
17296;DHT22;8766;51.480;6.872;2022-10-22T04:07:34;14.90;74.90
17296;DHT22;8766;51.480;6.872;2022-10-22T04:10:01;14.90;74.90
17296;DHT22;8766;51.480;6.872;2022-10-22T04:12:28;14.90;74.90
17296;DHT22;8766;51.480;6.872;2022-10-22T04:14:55;14.90;74.80
17296;DHT22;8766;51.480;6.872;2022-10-22T04:17:23;15.00;74.80
17296;DHT22;8766;51.480;6.872;2022-10-22T04:19:50;15.00;74.60
17296;DHT22;8766;51.480;6.872;2022-10-22T04:22:17;15.00;74.50
17296;DHT22;8766;51.480;6.872;2022-10-22T04:24:43;15.00;74.40
17296;DHT22;8766;51.480;6.872;2022-10-22T04:27:10;15.10;74.40
17296;DHT22;8766;51.480;6.872;2022-10-22T04:29:37;15.10;74.40
17296;DHT22;8766;51.480;6.872;2022-10-22T04:32:04;15.10;74.40
17296;DHT22;8766;51.480;6.872;2022-10-22T04:34:32;15.10;74.40
17296;DHT22;8766;51.480;6.872;2022-10-22T04:36:59;15.10;74.40
17296;DHT22;8766;51.480;6.872;2022-10-22T04:39:26;15.10;74.40
17296;DHT22;8766;51.480;6.872;2022-10-22T04:41:53;15.10;74.30
17296;DHT22;8766;51.480;6.872;2022-10-22T04:44:20;15.20;74.30
17296;DHT22;8766;51.480;6.872;2022-10-22T04:46:47;15.20;74.20
17296;DHT22;8766;51.480;6.872;2022-10-22T04:49:14;15.20;74.20
17296;DHT22;8766;51.480;6.872;2022-10-22T04:51:42;15.20;74.10
17296;DHT22;8766;51.480;6.872;2022-10-22T04:54:09;15.20;74.10
17296;DHT22;8766;51.480;6.872;2022-10-22T04:56:36;15.20;74.10
17296;DHT22;8766;51.480;6.872;2022-10-22T04:59:06;15.20;74.20
17296;DHT22;8766;51.480;6.872;2022-10-22T05:01:34;15.10;74.30
17296;DHT22;8766;51.480;6.872;2022-10-22T05:04:02;15.10;75.00
17296;DHT22;8766;51.480;6.872;2022-10-22T05:06:31;15.10;74.50
17296;DHT22;8766;51.480;6.872;2022-10-22T05:09:02;15.00;74.60
17296;DHT22;8766;51.480;6.872;2022-10-22T05:11:33;15.00;74.70
17296;DHT22;8766;51.480;6.872;2022-10-22T05:14:02;15.00;74.80
17296;DHT22;8766;51.480;6.872;2022-10-22T05:16:30;14.90;75.50
17296;DHT22;8766;51.480;6.872;2022-10-22T05:18:59;14.90;74.90
17296;DHT22;8766;51.480;6.872;2022-10-22T05:21:27;14.90;75.00
17296;DHT22;8766;51.480;6.872;2022-10-22T05:23:54;14.90;75.00
17296;DHT22;8766;51.480;6.872;2022-10-22T05:26:26;14.80;75.00
17296;DHT22;8766;51.480;6.872;2022-10-22T05:28:54;14.80;75.00
17296;DHT22;8766;51.480;6.872;2022-10-22T05:31:21;14.80;75.10
17296;DHT22;8766;51.480;6.872;2022-10-22T05:33:48;14.80;75.10
17296;DHT22;8766;51.480;6.872;2022-10-22T05:36:18;14.80;75.20
17296;DHT22;8766;51.480;6.872;2022-10-22T05:38:45;14.70;75.20
17296;DHT22;8766;51.480;6.872;2022-10-22T05:41:13;14.70;75.30
17296;DHT22;8766;51.480;6.872;2022-10-22T05:43:42;14.70;75.30
17296;DHT22;8766;51.480;6.872;2022-10-22T05:46:11;14.70;75.30
17296;DHT22;8766;51.480;6.872;2022-10-22T05:48:38;14.70;75.30
17296;DHT22;8766;51.480;6.872;2022-10-22T05:51:08;14.70;75.30
17296;DHT22;8766;51.480;6.872;2022-10-22T05:53:37;14.70;75.30
17296;DHT22;8766;51.480;6.872;2022-10-22T05:56:06;14.70;75.30
17296;DHT22;8766;51.480;6.872;2022-10-22T05:58:35;14.70;75.30
17296;DHT22;8766;51.480;6.872;2022-10-22T06:01:04;14.70;75.40
17296;DHT22;8766;51.480;6.872;2022-10-22T06:03:32;14.60;75.30
17296;DHT22;8766;51.480;6.872;2022-10-22T06:06:00;14.70;75.30
17296;DHT22;8766;51.480;6.872;2022-10-22T06:08:28;14.70;75.30
17296;DHT22;8766;51.480;6.872;2022-10-22T06:10:56;14.70;75.30
17296;DHT22;8766;51.480;6.872;2022-10-22T06:13:23;14.70;75.30
17296;DHT22;8766;51.480;6.872;2022-10-22T06:15:50;14.70;75.30
17296;DHT22;8766;51.480;6.872;2022-10-22T06:18:19;14.70;75.30
17296;DHT22;8766;51.480;6.872;2022-10-22T06:20:46;14.70;75.30
17296;DHT22;8766;51.480;6.872;2022-10-22T06:23:13;14.70;75.20
17296;DHT22;8766;51.480;6.872;2022-10-22T06:25:40;14.80;75.30
17296;DHT22;8766;51.480;6.872;2022-10-22T06:28:08;14.80;75.20
17296;DHT22;8766;51.480;6.872;2022-10-22T06:30:36;14.80;75.10
17296;DHT22;8766;51.480;6.872;2022-10-22T06:33:03;14.90;75.10
17296;DHT22;8766;51.480;6.872;2022-10-22T06:35:31;14.90;74.90
17296;DHT22;8766;51.480;6.872;2022-10-22T06:37:58;14.90;74.80
17296;DHT22;8766;51.480;6.872;2022-10-22T06:40:26;15.00;74.70
17296;DHT22;8766;51.480;6.872;2022-10-22T06:42:52;15.00;74.60
17296;DHT22;8766;51.480;6.872;2022-10-22T06:45:19;15.10;74.60
17296;DHT22;8766;51.480;6.872;2022-10-22T06:47:46;15.10;74.50
17296;DHT22;8766;51.480;6.872;2022-10-22T06:50:13;15.10;74.40
17296;DHT22;8766;51.480;6.872;2022-10-22T06:52:41;15.10;74.40
17296;DHT22;8766;51.480;6.872;2022-10-22T06:55:09;15.10;74.50
17296;DHT22;8766;51.480;6.872;2022-10-22T06:57:36;15.10;74.50
17296;DHT22;8766;51.480;6.872;2022-10-22T07:00:04;15.10;75.20
17296;DHT22;8766;51.480;6.872;2022-10-22T07:02:32;15.10;74.50
17296;DHT22;8766;51.480;6.872;2022-10-22T07:04:58;15.20;74.50
17296;DHT22;8766;51.480;6.872;2022-10-22T07:07:25;15.20;74.30
17296;DHT22;8766;51.480;6.872;2022-10-22T07:09:54;15.30;74.20
17296;DHT22;8766;51.480;6.872;2022-10-22T07:12:20;15.30;74.10
17296;DHT22;8766;51.480;6.872;2022-10-22T07:14:48;15.40;73.90
17296;DHT22;8766;51.480;6.872;2022-10-22T07:17:15;15.50;73.70
17296;DHT22;8766;51.480;6.872;2022-10-22T07:19:41;15.70;73.30
17296;DHT22;8766;51.480;6.872;2022-10-22T07:22:08;15.90;73.00
17296;DHT22;8766;51.480;6.872;2022-10-22T07:24:35;16.10;72.50
17296;DHT22;8766;51.480;6.872;2022-10-22T07:27:03;16.30;72.00
17296;DHT22;8766;51.480;6.872;2022-10-22T07:29:30;16.40;71.60
17296;DHT22;8766;51.480;6.872;2022-10-22T07:31:57;16.60;71.30
17296;DHT22;8766;51.480;6.872;2022-10-22T07:34:24;16.70;71.10
17296;DHT22;8766;51.480;6.872;2022-10-22T07:36:51;16.70;71.10
17296;DHT22;8766;51.480;6.872;2022-10-22T07:39:18;16.60;71.10
17296;DHT22;8766;51.480;6.872;2022-10-22T07:41:45;16.60;71.30
17296;DHT22;8766;51.480;6.872;2022-10-22T07:44:13;16.60;71.50
17296;DHT22;8766;51.480;6.872;2022-10-22T07:46:40;16.60;71.60
17296;DHT22;8766;51.480;6.872;2022-10-22T07:49:06;16.60;71.60
17296;DHT22;8766;51.480;6.872;2022-10-22T07:51:33;16.70;71.50
17296;DHT22;8766;51.480;6.872;2022-10-22T07:54:00;16.70;71.30
17296;DHT22;8766;51.480;6.872;2022-10-22T07:56:27;16.80;71.10
17296;DHT22;8766;51.480;6.872;2022-10-22T07:58:54;17.00;70.80
17296;DHT22;8766;51.480;6.872;2022-10-22T08:01:22;17.20;70.40
17296;DHT22;8766;51.480;6.872;2022-10-22T08:03:49;17.30;70.30
17296;DHT22;8766;51.480;6.872;2022-10-22T08:06:16;17.30;70.20
17296;DHT22;8766;51.480;6.872;2022-10-22T08:08:43;17.30;70.30
17296;DHT22;8766;51.480;6.872;2022-10-22T08:11:11;17.20;70.40
17296;DHT22;8766;51.480;6.872;2022-10-22T08:13:38;17.20;70.50
17296;DHT22;8766;51.480;6.872;2022-10-22T08:16:05;17.20;70.60
17296;DHT22;8766;51.480;6.872;2022-10-22T08:18:33;17.20;70.50
17296;DHT22;8766;51.480;6.872;2022-10-22T08:21:00;17.40;70.30
17296;DHT22;8766;51.480;6.872;2022-10-22T08:23:27;17.50;70.00
17296;DHT22;8766;51.480;6.872;2022-10-22T08:25:55;17.60;69.70
17296;DHT22;8766;51.480;6.872;2022-10-22T08:28:21;17.60;69.70
17296;DHT22;8766;51.480;6.872;2022-10-22T08:30:48;17.60;69.70
17296;DHT22;8766;51.480;6.872;2022-10-22T08:33:15;17.60;69.80
17296;DHT22;8766;51.480;6.872;2022-10-22T08:35:47;17.50;69.90
17296;DHT22;8766;51.480;6.872;2022-10-22T08:38:15;17.40;70.10
17296;DHT22;8766;51.480;6.872;2022-10-22T08:40:43;17.40;70.30
17296;DHT22;8766;51.480;6.872;2022-10-22T08:43:24;17.30;70.60
17296;DHT22;8766;51.480;6.872;2022-10-22T08:46:03;17.20;70.70
17296;DHT22;8766;51.480;6.872;2022-10-22T08:48:40;17.10;70.90
17296;DHT22;8766;51.480;6.872;2022-10-22T08:51:14;17.10;71.00
17296;DHT22;8766;51.480;6.872;2022-10-22T08:53:49;17.10;71.20
17296;DHT22;8766;51.480;6.872;2022-10-22T08:56:21;17.00;71.20
17296;DHT22;8766;51.480;6.872;2022-10-22T08:58:52;17.00;71.20
17296;DHT22;8766;51.480;6.872;2022-10-22T09:01:21;17.00;71.20
17296;DHT22;8766;51.480;6.872;2022-10-22T09:03:51;17.10;71.10
17296;DHT22;8766;51.480;6.872;2022-10-22T09:06:23;17.10;71.00
17296;DHT22;8766;51.480;6.872;2022-10-22T09:08:52;17.20;70.90
17296;DHT22;8766;51.480;6.872;2022-10-22T09:11:24;17.10;70.60
17296;DHT22;8766;51.480;6.872;2022-10-22T09:13:51;17.30;70.60
17296;DHT22;8766;51.480;6.872;2022-10-22T09:16:23;17.30;70.40
17296;DHT22;8766;51.480;6.872;2022-10-22T09:19:00;17.40;70.30
17296;DHT22;8766;51.480;6.872;2022-10-22T09:21:36;17.50;70.20
17296;DHT22;8766;51.480;6.872;2022-10-22T09:24:10;17.60;70.00
17296;DHT22;8766;51.480;6.872;2022-10-22T09:26:39;17.60;70.00
17296;DHT22;8766;51.480;6.872;2022-10-22T09:29:12;17.60;70.00
17296;DHT22;8766;51.480;6.872;2022-10-22T09:31:40;17.60;70.00
17296;DHT22;8766;51.480;6.872;2022-10-22T09:34:07;17.60;69.80
17296;DHT22;8766;51.480;6.872;2022-10-22T09:36:37;17.70;69.70
17296;DHT22;8766;51.480;6.872;2022-10-22T09:39:04;17.80;69.60
17296;DHT22;8766;51.480;6.872;2022-10-22T09:41:47;17.80;69.60
17296;DHT22;8766;51.480;6.872;2022-10-22T09:44:13;17.80;69.60
17296;DHT22;8766;51.480;6.872;2022-10-22T09:46:40;17.70;69.60
17296;DHT22;8766;51.480;6.872;2022-10-22T09:49:12;17.70;69.70
17296;DHT22;8766;51.480;6.872;2022-10-22T09:51:50;17.70;69.90
17296;DHT22;8766;51.480;6.872;2022-10-22T09:54:20;17.60;70.00
17296;DHT22;8766;51.480;6.872;2022-10-22T09:56:52;17.60;70.00
17296;DHT22;8766;51.480;6.872;2022-10-22T09:59:26;17.60;70.00
17296;DHT22;8766;51.480;6.872;2022-10-22T10:02:00;17.70;69.90
17296;DHT22;8766;51.480;6.872;2022-10-22T10:04:27;17.80;69.90
17296;DHT22;8766;51.480;6.872;2022-10-22T10:06:55;17.80;69.70
17296;DHT22;8766;51.480;6.872;2022-10-22T10:09:24;17.90;69.60
17296;DHT22;8766;51.480;6.872;2022-10-22T10:11:56;17.90;69.50
17296;DHT22;8766;51.480;6.872;2022-10-22T10:14:32;17.90;69.50
17296;DHT22;8766;51.480;6.872;2022-10-22T10:17:07;17.90;69.50
17296;DHT22;8766;51.480;6.872;2022-10-22T10:19:47;17.90;69.40
17296;DHT22;8766;51.480;6.872;2022-10-22T10:22:29;18.00;69.50
17296;DHT22;8766;51.480;6.872;2022-10-22T10:25:18;18.00;69.30
17296;DHT22;8766;51.480;6.872;2022-10-22T10:27:52;18.00;69.30
17296;DHT22;8766;51.480;6.872;2022-10-22T10:30:22;18.00;69.30
17296;DHT22;8766;51.480;6.872;2022-10-22T10:33:04;18.10;69.20
17296;DHT22;8766;51.480;6.872;2022-10-22T10:35:41;18.20;69.20
17296;DHT22;8766;51.480;6.872;2022-10-22T10:38:23;18.30;68.90
17296;DHT22;8766;51.480;6.872;2022-10-22T10:40:56;18.40;68.70
17296;DHT22;8766;51.480;6.872;2022-10-22T10:43:31;18.50;68.30
17296;DHT22;8766;51.480;6.872;2022-10-22T10:46:04;18.60;68.10
17296;DHT22;8766;51.480;6.872;2022-10-22T10:48:45;18.70;68.00
17296;DHT22;8766;51.480;6.872;2022-10-22T10:51:24;18.70;68.00
17296;DHT22;8766;51.480;6.872;2022-10-22T10:54:03;18.70;68.00
17296;DHT22;8766;51.480;6.872;2022-10-22T10:56:38;18.70;68.10
17296;DHT22;8766;51.480;6.872;2022-10-22T10:59:30;18.60;68.20
17296;DHT22;8766;51.480;6.872;2022-10-22T11:02:23;18.60;68.30
17296;DHT22;8766;51.480;6.872;2022-10-22T11:05:10;18.60;68.40
17296;DHT22;8766;51.480;6.872;2022-10-22T11:07:45;18.50;68.40
17296;DHT22;8766;51.480;6.872;2022-10-22T11:10:22;18.50;68.50
17296;DHT22;8766;51.480;6.872;2022-10-22T11:12:54;18.50;68.50
17296;DHT22;8766;51.480;6.872;2022-10-22T11:15:26;18.50;68.50
17296;DHT22;8766;51.480;6.872;2022-10-22T11:18:00;18.60;68.50
17296;DHT22;8766;51.480;6.872;2022-10-22T11:20:36;18.60;68.40
17296;DHT22;8766;51.480;6.872;2022-10-22T11:23:07;18.70;68.30
17296;DHT22;8766;51.480;6.872;2022-10-22T11:25:39;18.70;68.10
17296;DHT22;8766;51.480;6.872;2022-10-22T11:28:11;18.90;68.00
17296;DHT22;8766;51.480;6.872;2022-10-22T11:30:42;18.90;67.80
17296;DHT22;8766;51.480;6.872;2022-10-22T11:33:14;18.90;67.70
17296;DHT22;8766;51.480;6.872;2022-10-22T11:35:45;18.90;67.70
17296;DHT22;8766;51.480;6.872;2022-10-22T11:38:16;19.00;67.60
17296;DHT22;8766;51.480;6.872;2022-10-22T11:40:47;19.00;67.60
17296;DHT22;8766;51.480;6.872;2022-10-22T11:43:26;19.00;67.60
17296;DHT22;8766;51.480;6.872;2022-10-22T11:45:58;19.00;67.60
17296;DHT22;8766;51.480;6.872;2022-10-22T11:48:27;18.90;67.70
17296;DHT22;8766;51.480;6.872;2022-10-22T11:50:55;18.90;68.00
17296;DHT22;8766;51.480;6.872;2022-10-22T11:53:30;18.80;68.20
17296;DHT22;8766;51.480;6.872;2022-10-22T11:56:03;18.70;68.30
17296;DHT22;8766;51.480;6.872;2022-10-22T11:58:47;18.70;69.10
17296;DHT22;8766;51.480;6.872;2022-10-22T12:01:26;18.60;68.60
17296;DHT22;8766;51.480;6.872;2022-10-22T12:04:16;18.60;68.70
17296;DHT22;8766;51.480;6.872;2022-10-22T12:06:59;18.50;68.70
17296;DHT22;8766;51.480;6.872;2022-10-22T12:09:27;18.50;68.90
17296;DHT22;8766;51.480;6.872;2022-10-22T12:12:09;18.50;69.00
17296;DHT22;8766;51.480;6.872;2022-10-22T12:14:50;18.50;69.70
17296;DHT22;8766;51.480;6.872;2022-10-22T12:17:21;18.50;69.00
17296;DHT22;8766;51.480;6.872;2022-10-22T12:19:50;18.50;68.90
17296;DHT22;8766;51.480;6.872;2022-10-22T12:22:22;18.50;68.80
17296;DHT22;8766;51.480;6.872;2022-10-22T12:24:53;18.50;68.70
17296;DHT22;8766;51.480;6.872;2022-10-22T12:27:24;18.60;68.70
17296;DHT22;8766;51.480;6.872;2022-10-22T12:29:54;18.60;68.70
17296;DHT22;8766;51.480;6.872;2022-10-22T12:32:21;18.70;68.60
17296;DHT22;8766;51.480;6.872;2022-10-22T12:34:49;18.70;68.40
17296;DHT22;8766;51.480;6.872;2022-10-22T12:37:18;18.70;68.30
17296;DHT22;8766;51.480;6.872;2022-10-22T12:39:45;18.80;68.20
17296;DHT22;8766;51.480;6.872;2022-10-22T12:42:15;18.90;68.10
17296;DHT22;8766;51.480;6.872;2022-10-22T12:44:44;18.90;68.00
17296;DHT22;8766;51.480;6.872;2022-10-22T12:47:14;18.90;67.90
17296;DHT22;8766;51.480;6.872;2022-10-22T12:49:45;19.00;67.80
17296;DHT22;8766;51.480;6.872;2022-10-22T12:52:15;19.00;67.70
17296;DHT22;8766;51.480;6.872;2022-10-22T12:54:44;19.10;67.80
17296;DHT22;8766;51.480;6.872;2022-10-22T12:57:14;19.10;67.60
17296;DHT22;8766;51.480;6.872;2022-10-22T12:59:45;19.10;67.50
17296;DHT22;8766;51.480;6.872;2022-10-22T13:02:18;19.20;67.60
17296;DHT22;8766;51.480;6.872;2022-10-22T13:07:53;19.20;67.50
17296;DHT22;8766;51.480;6.872;2022-10-22T13:10:25;19.20;67.60
17296;DHT22;8766;51.480;6.872;2022-10-22T13:12:56;19.10;67.60
17296;DHT22;8766;51.480;6.872;2022-10-22T13:15:38;19.10;67.80
17296;DHT22;8766;51.480;6.872;2022-10-22T13:18:14;19.10;67.80
17296;DHT22;8766;51.480;6.872;2022-10-22T13:20:52;19.10;67.80
17296;DHT22;8766;51.480;6.872;2022-10-22T13:23:21;19.10;67.80
17296;DHT22;8766;51.480;6.872;2022-10-22T13:25:57;19.00;67.80
17296;DHT22;8766;51.480;6.872;2022-10-22T13:28:25;19.00;67.90
17296;DHT22;8766;51.480;6.872;2022-10-22T13:30:55;19.00;68.00
17296;DHT22;8766;51.480;6.872;2022-10-22T13:33:25;19.00;68.00
17296;DHT22;8766;51.480;6.872;2022-10-22T13:35:53;19.00;68.00
17296;DHT22;8766;51.480;6.872;2022-10-22T13:38:22;19.00;68.00
17296;DHT22;8766;51.480;6.872;2022-10-22T13:40:50;19.00;67.90
17296;DHT22;8766;51.480;6.872;2022-10-22T13:43:17;19.00;67.90
17296;DHT22;8766;51.480;6.872;2022-10-22T13:45:45;19.00;68.00
17296;DHT22;8766;51.480;6.872;2022-10-22T13:48:15;19.00;68.00
17296;DHT22;8766;51.480;6.872;2022-10-22T13:50:43;19.00;68.00
17296;DHT22;8766;51.480;6.872;2022-10-22T13:53:15;19.00;68.00
17296;DHT22;8766;51.480;6.872;2022-10-22T13:55:43;19.00;68.10
17296;DHT22;8766;51.480;6.872;2022-10-22T13:58:12;19.00;68.10
17296;DHT22;8766;51.480;6.872;2022-10-22T14:00:41;19.00;68.00
17296;DHT22;8766;51.480;6.872;2022-10-22T14:03:10;19.00;68.00
17296;DHT22;8766;51.480;6.872;2022-10-22T14:05:39;19.10;67.90
17296;DHT22;8766;51.480;6.872;2022-10-22T14:08:08;19.10;67.80
17296;DHT22;8766;51.480;6.872;2022-10-22T14:10:36;19.10;67.80
17296;DHT22;8766;51.480;6.872;2022-10-22T14:13:05;19.10;67.70
17296;DHT22;8766;51.480;6.872;2022-10-22T14:15:33;19.10;67.70
17296;DHT22;8766;51.480;6.872;2022-10-22T14:18:00;19.10;67.80
17296;DHT22;8766;51.480;6.872;2022-10-22T14:20:29;19.10;67.90
17296;DHT22;8766;51.480;6.872;2022-10-22T14:23:02;19.00;68.00
17296;DHT22;8766;51.480;6.872;2022-10-22T14:25:31;19.00;68.10
17296;DHT22;8766;51.480;6.872;2022-10-22T14:27:58;18.90;68.20
17296;DHT22;8766;51.480;6.872;2022-10-22T14:30:25;18.90;68.30
17296;DHT22;8766;51.480;6.872;2022-10-22T14:32:54;18.80;68.40
17296;DHT22;8766;51.480;6.872;2022-10-22T14:35:23;18.80;68.50
17296;DHT22;8766;51.480;6.872;2022-10-22T14:37:50;18.80;68.60
17296;DHT22;8766;51.480;6.872;2022-10-22T14:40:20;18.70;68.70
17296;DHT22;8766;51.480;6.872;2022-10-22T14:42:47;18.70;68.70
17296;DHT22;8766;51.480;6.872;2022-10-22T14:45:18;18.70;68.80
17296;DHT22;8766;51.480;6.872;2022-10-22T14:47:45;18.70;68.80
17296;DHT22;8766;51.480;6.872;2022-10-22T14:50:13;18.70;68.80
17296;DHT22;8766;51.480;6.872;2022-10-22T14:52:40;18.60;68.80
17296;DHT22;8766;51.480;6.872;2022-10-22T14:55:08;18.60;68.80
17296;DHT22;8766;51.480;6.872;2022-10-22T14:57:37;18.60;68.80
17296;DHT22;8766;51.480;6.872;2022-10-22T15:00:06;18.60;68.90
17296;DHT22;8766;51.480;6.872;2022-10-22T15:02:33;18.50;68.90
17296;DHT22;8766;51.480;6.872;2022-10-22T15:05:00;18.50;69.10
17296;DHT22;8766;51.480;6.872;2022-10-22T15:07:27;18.40;69.30
17296;DHT22;8766;51.480;6.872;2022-10-22T15:09:54;18.30;69.40
17296;DHT22;8766;51.480;6.872;2022-10-22T15:12:21;18.30;69.50
17296;DHT22;8766;51.480;6.872;2022-10-22T15:14:49;18.30;69.50
17296;DHT22;8766;51.480;6.872;2022-10-22T15:17:17;18.40;69.40
17296;DHT22;8766;51.480;6.872;2022-10-22T15:19:44;18.40;69.30
17296;DHT22;8766;51.480;6.872;2022-10-22T15:22:11;18.50;69.20
17296;DHT22;8766;51.480;6.872;2022-10-22T15:24:38;18.50;69.10
17296;DHT22;8766;51.480;6.872;2022-10-22T15:27:05;18.50;69.10
17296;DHT22;8766;51.480;6.872;2022-10-22T15:29:33;18.40;69.20
17296;DHT22;8766;51.480;6.872;2022-10-22T15:32:02;18.40;69.30
17296;DHT22;8766;51.480;6.872;2022-10-22T15:34:31;18.30;69.40
17296;DHT22;8766;51.480;6.872;2022-10-22T15:37:03;18.20;69.60
17296;DHT22;8766;51.480;6.872;2022-10-22T15:39:30;18.20;69.80
17296;DHT22;8766;51.480;6.872;2022-10-22T15:41:58;18.10;69.90
17296;DHT22;8766;51.480;6.872;2022-10-22T15:44:27;18.10;70.10
17296;DHT22;8766;51.480;6.872;2022-10-22T15:46:55;18.00;70.80
17296;DHT22;8766;51.480;6.872;2022-10-22T15:49:25;17.90;70.30
17296;DHT22;8766;51.480;6.872;2022-10-22T15:51:52;17.90;70.40
17296;DHT22;8766;51.480;6.872;2022-10-22T15:54:21;17.80;70.50
17296;DHT22;8766;51.480;6.872;2022-10-22T15:56:49;17.80;70.70
17296;DHT22;8766;51.480;6.872;2022-10-22T15:59:16;17.70;70.70
17296;DHT22;8766;51.480;6.872;2022-10-22T16:01:45;17.60;70.80
17296;DHT22;8766;51.480;6.872;2022-10-22T16:04:12;17.60;71.00
17296;DHT22;8766;51.480;6.872;2022-10-22T16:06:43;17.60;71.10